createdAt,value
2023-01-20T00:04:07.720Z,11.60
2023-01-20T00:09:18.207Z,11.47
2023-01-20T00:14:25.352Z,12.90
2023-01-20T00:19:30.964Z,12.10
2023-01-20T00:24:36.576Z,6.93
2023-01-20T00:29:43.599Z,12.40
2023-01-20T00:34:49.002Z,10.50
2023-01-20T00:39:54.461Z,11.90
2023-01-20T00:45:00.433Z,12.40
2023-01-20T00:50:06.606Z,12.10
2023-01-20T00:55:12.450Z,12.77
2023-01-20T01:00:20.264Z,12.57
2023-01-20T01:05:25.927Z,12.60
2023-01-20T01:10:32.037Z,13.20
2023-01-20T01:15:38.561Z,12.67
2023-01-20T01:20:44.955Z,13.00
2023-01-20T01:25:50.486Z,12.73
2023-01-20T01:30:56.306Z,11.77
2023-01-20T01:36:03.997Z,11.03
2023-01-20T01:41:10.727Z,11.50
2023-01-20T01:46:16.189Z,11.00
2023-01-20T01:51:24.641Z,11.80
2023-01-20T01:56:31.835Z,11.67
2023-01-20T02:01:39.723Z,12.67
2023-01-20T02:06:50.889Z,12.53
2023-01-20T02:11:59.332Z,10.47
2023-01-20T02:17:07.765Z,10.77
2023-01-20T02:22:16.276Z,10.80
2023-01-20T02:27:34.925Z,11.67
2023-01-20T02:32:49.356Z,10.37
2023-01-20T02:38:06.409Z,11.57
2023-01-20T02:43:16.065Z,10.10
2023-01-20T02:48:27.298Z,9.67
2023-01-20T02:53:35.732Z,9.47
2023-01-20T02:58:53.345Z,9.30
2023-01-20T03:04:02.394Z,9.43
2023-01-20T03:09:10.876Z,9.70
2023-01-20T03:14:17.386Z,9.97
2023-01-20T03:19:22.995Z,9.63
2023-01-20T03:24:30.588Z,9.07
2023-01-20T03:29:36.323Z,8.13
2023-01-20T03:34:44.118Z,8.93
2023-01-20T03:39:50.051Z,8.90
2023-01-20T03:45:07.455Z,9.47
2023-01-20T03:50:39.697Z,8.80
2023-01-20T03:55:50.953Z,8.13
2023-01-20T04:00:57.881Z,8.87
2023-01-20T04:06:07.214Z,8.77
2023-01-20T04:11:12.769Z,8.50
2023-01-20T04:16:20.317Z,8.90
2023-01-20T04:21:38.063Z,8.83
2023-01-20T04:26:43.729Z,9.10
2023-01-20T04:31:49.364Z,8.33
2023-01-20T04:36:54.955Z,9.00
2023-01-20T04:42:00.488Z,8.50
2023-01-20T04:47:06.131Z,9.77
2023-01-20T04:52:11.641Z,9.30
2023-01-20T04:57:17.108Z,9.00
2023-01-20T05:02:22.779Z,8.17
2023-01-20T05:07:28.481Z,8.47
2023-01-20T05:12:33.937Z,8.53
2023-01-20T05:17:39.321Z,8.30
2023-01-20T05:22:44.705Z,8.33
2023-01-20T05:27:50.088Z,7.87
2023-01-20T05:32:55.608Z,5.20
2023-01-20T05:38:01.116Z,8.27
2023-01-20T05:43:06.574Z,5.07
2023-01-20T05:48:12.048Z,8.07
2023-01-20T05:53:17.831Z,8.07
2023-01-20T05:58:23.363Z,8.17
2023-01-20T06:03:28.796Z,7.77
2023-01-20T06:08:34.434Z,8.07
2023-01-20T06:13:39.930Z,7.47
2023-01-20T06:18:45.858Z,7.10
2023-01-20T06:23:51.412Z,9.77
2023-01-20T06:29:01.688Z,8.10
2023-01-20T06:34:07.051Z,7.63
2023-01-20T06:39:12.523Z,8.17
2023-01-20T06:44:18.139Z,6.83
2023-01-20T06:49:23.662Z,5.87
2023-01-20T06:54:29.014Z,8.17
2023-01-20T06:59:34.472Z,7.67
2023-01-20T07:04:39.978Z,7.53
2023-01-20T07:09:45.366Z,7.37
2023-01-20T07:14:50.965Z,7.20
2023-01-20T07:19:56.441Z,6.87
2023-01-20T07:25:01.885Z,6.40
2023-01-20T07:30:08.596Z,7.20
2023-01-20T07:35:14.361Z,7.10
2023-01-20T07:40:20.228Z,7.27
2023-01-20T07:45:26.755Z,6.80
2023-01-20T07:50:32.261Z,7.00
2023-01-20T07:55:37.824Z,6.97
2023-01-20T08:00:43.473Z,6.30
2023-01-20T08:05:49.085Z,6.60
2023-01-20T08:10:58.510Z,6.90
2023-01-20T08:16:05.945Z,7.03
2023-01-20T08:21:14.377Z,6.50
2023-01-20T08:26:20.173Z,5.93
2023-01-20T08:31:26.201Z,6.93
2023-01-20T08:36:34.607Z,5.70
2023-01-20T08:41:42.685Z,6.57
2023-01-20T08:46:49.940Z,6.03
2023-01-20T08:51:56.388Z,6.53
2023-01-20T08:57:02.023Z,5.90
2023-01-20T09:02:07.767Z,6.43
2023-01-20T09:07:14.226Z,6.07
2023-01-20T09:12:19.682Z,5.80
2023-01-20T09:17:25.177Z,5.77
2023-01-20T09:22:30.550Z,6.20
2023-01-20T09:27:36.068Z,5.73
2023-01-20T09:32:42.439Z,5.50
2023-01-20T09:38:06.695Z,5.60
2023-01-20T09:43:50.125Z,5.90
2023-01-20T09:49:38.019Z,5.93
2023-01-20T09:54:49.210Z,6.13
2023-01-20T09:59:57.769Z,4.70
2023-01-20T10:05:09.076Z,6.53
2023-01-20T10:10:20.302Z,6.37
2023-01-20T10:15:31.627Z,5.97
2023-01-20T10:20:48.875Z,6.23
2023-01-20T10:26:09.483Z,7.30
2023-01-20T10:31:19.841Z,6.17
2023-01-20T10:36:31.161Z,7.23
2023-01-20T10:41:48.684Z,6.43
2023-01-20T10:47:18.140Z,6.00
2023-01-20T10:52:44.712Z,6.67
2023-01-20T10:57:54.754Z,5.90
2023-01-20T11:03:03.120Z,9.28
2023-01-20T11:08:11.756Z,7.57
2023-01-20T11:13:17.840Z,6.37
2023-01-20T11:18:27.981Z,6.73
2023-01-20T11:23:39.249Z,5.77
2023-01-20T11:28:50.750Z,6.03
2023-01-20T11:33:58.675Z,6.17
2023-01-20T11:39:06.057Z,6.00
2023-01-20T11:44:14.714Z,6.30
2023-01-20T11:49:24.029Z,6.57
2023-01-20T11:54:30.957Z,6.20
2023-01-20T11:59:39.296Z,6.60
2023-01-20T12:05:10.155Z,8.35
2023-01-20T12:10:24.273Z,6.63
2023-01-20T12:15:33.049Z,7.07
2023-01-20T12:20:54.829Z,6.27
2023-01-20T12:26:00.711Z,6.23
2023-01-20T12:31:08.415Z,5.60
2023-01-20T12:36:25.913Z,6.73
2023-01-20T12:41:43.160Z,6.67
2023-01-20T12:46:51.670Z,7.57
2023-01-20T12:52:08.990Z,7.50
2023-01-20T12:57:32.956Z,7.97
2023-01-20T13:02:47.195Z,8.60
2023-01-20T13:08:20.677Z,6.90
2023-01-20T13:13:40.253Z,7.80
2023-01-20T13:18:54.200Z,7.47
2023-01-20T13:24:02.598Z,6.87
2023-01-20T13:29:09.558Z,7.77
2023-01-20T13:34:26.989Z,7.63
2023-01-20T13:39:44.564Z,7.10
2023-01-20T13:45:09.644Z,7.80
2023-01-20T13:50:38.687Z,7.97
2023-01-20T13:55:49.978Z,6.93
2023-01-20T14:01:06.467Z,7.90
2023-01-20T14:06:15.001Z,7.83
2023-01-20T14:11:23.191Z,8.53
2023-01-20T14:16:37.705Z,8.23
2023-01-20T14:21:44.211Z,8.60
2023-01-20T14:26:49.595Z,7.90
2023-01-20T14:31:55.270Z,9.53
2023-01-20T14:37:06.796Z,9.97
2023-01-20T14:42:15.234Z,10.00
2023-01-20T14:47:22.487Z,9.87
2023-01-20T14:52:32.021Z,9.97
2023-01-20T14:57:44.691Z,10.33
2023-01-20T15:03:10.164Z,9.40
2023-01-20T15:08:25.784Z,9.57
2023-01-20T15:13:31.322Z,9.60
2023-01-20T15:18:36.805Z,11.87
2023-01-20T15:23:43.904Z,10.53
2023-01-20T15:28:49.693Z,11.20
2023-01-20T15:33:55.247Z,11.80
2023-01-20T15:39:00.705Z,10.13
2023-01-20T15:44:06.338Z,11.33
2023-01-20T15:49:12.458Z,10.33
2023-01-20T15:54:17.934Z,11.30
2023-01-20T15:59:24.489Z,11.37
2023-01-20T16:04:31.692Z,13.83
2023-01-20T16:09:38.715Z,15.13
2023-01-20T16:14:44.349Z,16.83
2023-01-20T16:19:50.684Z,16.90
2023-01-20T16:24:56.227Z,15.60
2023-01-20T16:30:01.756Z,17.70
2023-01-20T16:35:07.908Z,18.90
2023-01-20T16:40:17.269Z,19.13
2023-01-20T16:45:31.611Z,18.93
2023-01-20T16:50:38.196Z,20.87
2023-01-20T16:55:48.461Z,20.60
2023-01-20T17:00:54.085Z,21.03
2023-01-20T17:05:59.517Z,19.47
2023-01-20T17:11:05.198Z,19.30
2023-01-20T17:16:10.663Z,18.77
2023-01-20T17:21:16.333Z,19.43
2023-01-20T17:26:22.940Z,22.83
2023-01-20T17:31:28.552Z,23.80
2023-01-20T17:36:35.019Z,17.23
2023-01-20T17:41:40.814Z,15.93
2023-01-20T17:46:47.797Z,16.70
2023-01-20T17:51:53.202Z,14.17
2023-01-20T17:56:59.130Z,14.73
2023-01-20T18:02:05.729Z,14.80
2023-01-20T18:07:11.622Z,15.73
2023-01-20T18:12:17.160Z,16.07
2023-01-20T18:17:23.010Z,16.80
2023-01-20T18:22:28.637Z,16.23
2023-01-20T18:27:34.194Z,17.07
2023-01-20T18:32:39.835Z,14.63
2023-01-20T18:37:45.458Z,16.37
2023-01-20T18:42:50.912Z,19.67
2023-01-20T18:47:56.457Z,17.60
2023-01-20T18:53:01.925Z,18.83
2023-01-20T18:58:09.241Z,16.80
2023-01-20T19:03:14.718Z,14.43
2023-01-20T19:08:20.303Z,14.97
2023-01-20T19:13:25.858Z,13.70
2023-01-20T19:18:31.523Z,14.50
2023-01-20T19:23:37.268Z,15.33
2023-01-20T19:28:43.025Z,16.23
2023-01-20T19:33:52.525Z,16.33
2023-01-20T19:38:58.934Z,15.87
2023-01-20T19:44:07.935Z,16.33
2023-01-20T19:49:13.985Z,16.37
2023-01-20T19:54:19.516Z,15.23
2023-01-20T19:59:25.286Z,14.23
2023-01-20T20:04:31.258Z,13.37
2023-01-20T20:09:37.823Z,12.70
2023-01-20T20:14:43.694Z,12.63
2023-01-20T20:19:49.225Z,12.33
2023-01-20T20:24:54.761Z,11.33
2023-01-20T20:30:01.434Z,10.07
2023-01-20T20:35:07.736Z,9.70
2023-01-20T20:40:14.600Z,11.03
2023-01-20T20:45:20.403Z,11.63
2023-01-20T20:50:27.528Z,9.63
2023-01-20T20:55:32.922Z,11.80
2023-01-20T21:00:39.072Z,12.60
2023-01-20T21:05:49.497Z,11.43
2023-01-20T21:10:55.057Z,9.87
2023-01-20T21:16:04.829Z,10.97
2023-01-20T21:21:13.719Z,10.53
2023-01-20T21:26:19.872Z,9.60
2023-01-20T21:31:26.972Z,8.73
2023-01-20T21:36:34.656Z,7.70
2023-01-20T21:41:40.630Z,7.93
2023-01-20T21:46:46.293Z,7.77
2023-01-20T21:52:09.879Z,10.40
2023-01-20T21:57:15.897Z,7.33
2023-01-20T22:02:21.898Z,9.60
2023-01-20T22:07:27.653Z,8.07
2023-01-20T22:12:34.871Z,7.47
2023-01-20T22:17:41.552Z,7.03
2023-01-20T22:22:47.743Z,7.33
2023-01-20T22:27:53.316Z,8.17
2023-01-20T22:32:58.924Z,7.93
2023-01-20T22:38:04.656Z,7.40
2023-01-20T22:43:10.207Z,8.47
2023-01-20T22:48:15.706Z,9.23
2023-01-20T22:53:21.276Z,8.67
2023-01-20T22:58:26.717Z,9.17
2023-01-20T23:03:32.321Z,9.37
2023-01-20T23:08:38.163Z,9.33
2023-01-20T23:13:44.228Z,8.40
2023-01-20T23:18:50.884Z,8.87
2023-01-20T23:23:56.334Z,9.00
2023-01-20T23:29:01.863Z,8.83
2023-01-20T23:34:07.337Z,8.27
2023-01-20T23:39:12.801Z,8.03
2023-01-20T23:44:18.263Z,8.53
2023-01-20T23:49:25.173Z,8.97
2023-01-20T23:54:30.702Z,7.83
2023-01-20T23:59:38.044Z,8.50
